Alzada, Montana
Current Conditions -  °F | °C
As of 1:15 PM on Saturday 25 Oct 2014 (Local Time) from KW43 Reporting Station
Clear Clear  
Wind Chill: 70°   Ceiling: Unl
Heat Index: 70°   Visibility: 10mi
Dew Point: 32°   Wind: 8mph
Humidity: 25%   Direction: 210°SSW
Pressure: 30.04"   Gusts: NA
Location:  45.03°N, 104.42°W
Report Text: KW43 251915Z AUTO 21007KT 10SM CLR 21/00 A3004 RMK AO2
Loading
Personal Weather Stations






























Interactive Weather Map New forecast layout! Learn more

10-Day Weather Forecast

Advertisements
Track Severe Weather on mobile